Terminal Aerodrome Forecast
Issued by NWS

Home | Current Version | Previous Version | Text Only | Print | Product List | Glossary On
Versions: 1 2 3 4 5 6 7 8 9 10 11 12 13 14 15 16 17 18 19 20 21 22 23 24 25 26 27 28 29 30 31 32 33
000
FTUS41 KGYX 012019 AAA
TAFLEB
TAF AMD
KLEB 012019Z 0120/0218 16007KT P6SM SCT025 BKN070
      TEMPO 0121/0124 -TSRA BKN050CB
     FM020400 24007KT 1SM BR SCT050
     FM021200 29007KT P6SM SCT050=

USA.gov is the U.S. government's official web portal to all federal, state and local government web resources and services.